createdAt,value
2019-06-01T00:01:31.680Z,16.90
2019-06-01T00:03:59.920Z,16.90
2019-06-01T00:06:27.988Z,16.80
2019-06-01T00:08:55.993Z,16.80
2019-06-01T00:11:26.505Z,16.70
2019-06-01T00:13:53.409Z,16.70
2019-06-01T00:16:21.639Z,16.70
2019-06-01T00:18:50.385Z,16.70
2019-06-01T00:21:18.544Z,16.70
2019-06-01T00:23:46.773Z,16.70
2019-06-01T00:26:16.397Z,16.60
2019-06-01T00:28:47.810Z,16.60
2019-06-01T00:31:15.163Z,16.50
2019-06-01T00:33:43.412Z,16.40
2019-06-01T00:36:11.617Z,16.40
2019-06-01T00:38:39.857Z,16.40
2019-06-01T00:41:07.903Z,16.40
2019-06-01T00:43:35.911Z,16.50
2019-06-01T00:46:04.080Z,16.50
2019-06-01T00:48:33.559Z,16.50
2019-06-01T00:51:01.466Z,16.40
2019-06-01T00:53:30.458Z,16.30
2019-06-01T00:56:01.082Z,16.40
2019-06-01T00:58:29.656Z,16.30
2019-06-01T01:00:56.659Z,16.30
2019-06-01T01:03:23.993Z,16.30
2019-06-01T01:05:52.754Z,16.30
2019-06-01T01:08:22.425Z,16.30
2019-06-01T01:10:50.979Z,16.20
2019-06-01T01:13:19.959Z,16.20
2019-06-01T01:15:49.295Z,16.20
2019-06-01T01:18:17.452Z,16.20
2019-06-01T01:20:47.827Z,16.10
2019-06-01T01:23:16.250Z,16.10
2019-06-01T01:25:43.734Z,16.10
2019-06-01T01:28:12.237Z,16.00
2019-06-01T01:30:40.573Z,16.00
2019-06-01T01:33:09.110Z,16.00
2019-06-01T01:35:38.348Z,16.00
2019-06-01T01:38:06.742Z,15.90
2019-06-01T01:40:35.017Z,15.90
2019-06-01T01:43:03.147Z,15.90
2019-06-01T01:45:31.978Z,15.90
2019-06-01T01:48:01.422Z,15.80
2019-06-01T01:50:30.455Z,15.80
2019-06-01T01:52:59.091Z,15.80
2019-06-01T01:55:27.478Z,15.80
2019-06-01T01:57:57.524Z,15.80
2019-06-01T02:00:35.761Z,15.80
2019-06-01T02:03:03.314Z,15.80
2019-06-01T02:05:35.607Z,15.80
2019-06-01T02:08:06.003Z,15.80
2019-06-01T02:10:33.458Z,15.70
2019-06-01T02:13:02.174Z,15.80
2019-06-01T02:15:31.246Z,15.90
2019-06-01T02:17:58.254Z,15.80
2019-06-01T02:20:27.080Z,15.80
2019-06-01T02:22:56.802Z,15.70
2019-06-01T02:25:25.993Z,15.80
2019-06-01T02:27:57.317Z,15.70
2019-06-01T02:30:26.421Z,15.60
2019-06-01T02:33:00.105Z,15.60
2019-06-01T02:35:31.140Z,15.60
2019-06-01T02:38:00.395Z,15.60
2019-06-01T02:40:28.789Z,15.70
2019-06-01T02:42:57.125Z,15.60
2019-06-01T02:45:25.377Z,15.70
2019-06-01T02:47:52.580Z,15.70
2019-06-01T02:50:24.468Z,15.80
2019-06-01T02:52:51.744Z,15.70
2019-06-01T02:55:21.890Z,15.70
2019-06-01T02:57:50.370Z,15.70
2019-06-01T03:00:26.984Z,15.70
2019-06-01T03:02:55.077Z,15.70
2019-06-01T03:05:25.038Z,15.50
2019-06-01T03:07:54.210Z,15.60
2019-06-01T03:10:22.776Z,15.70
2019-06-01T03:12:53.757Z,15.60
2019-06-01T03:15:22.954Z,15.70
2019-06-01T03:17:54.548Z,15.70
2019-06-01T03:20:24.072Z,15.80
2019-06-01T03:22:55.661Z,15.70
2019-06-01T03:25:28.087Z,15.70
2019-06-01T03:27:58.549Z,15.60
2019-06-01T03:30:44.611Z,15.50
2019-06-01T03:33:14.132Z,15.50
2019-06-01T03:35:44.023Z,15.60
2019-06-01T03:38:13.025Z,15.60
2019-06-01T03:40:41.645Z,15.60
2019-06-01T03:43:11.371Z,15.60
2019-06-01T03:45:40.442Z,15.70
2019-06-01T03:48:08.801Z,15.70
2019-06-01T03:50:37.497Z,15.70
2019-06-01T03:53:06.145Z,15.70
2019-06-01T03:55:35.440Z,15.70
2019-06-01T03:58:05.033Z,15.70
2019-06-01T04:00:34.645Z,15.80
2019-06-01T04:03:05.083Z,15.80
2019-06-01T04:05:35.436Z,15.90
2019-06-01T04:08:03.849Z,15.90
2019-06-01T04:10:32.791Z,15.90
2019-06-01T04:13:01.533Z,16.10
2019-06-01T04:15:30.429Z,16.10
2019-06-01T04:18:01.891Z,16.10
2019-06-01T04:20:31.146Z,16.20
2019-06-01T04:22:59.990Z,16.30
2019-06-01T04:25:31.401Z,16.50
2019-06-01T04:28:00.207Z,16.60
2019-06-01T04:30:29.364Z,16.70
2019-06-01T04:33:18.474Z,16.90
2019-06-01T04:35:45.908Z,17.00
2019-06-01T04:38:14.821Z,17.10
2019-06-01T04:40:42.426Z,17.20
2019-06-01T04:43:11.987Z,17.30
2019-06-01T04:45:39.284Z,17.50
2019-06-01T04:48:08.338Z,17.60
2019-06-01T04:50:35.949Z,17.90
2019-06-01T04:53:04.762Z,18.50
2019-06-01T04:55:33.478Z,19.00
2019-06-01T04:58:01.141Z,19.80
2019-06-01T05:00:29.817Z,20.80
2019-06-01T05:03:05.372Z,21.50
2019-06-01T05:05:26.589Z,22.20
2019-06-01T05:07:53.575Z,22.90
2019-06-01T05:10:21.834Z,23.00
2019-06-01T05:12:50.581Z,23.30
2019-06-01T05:15:19.132Z,23.70
2019-06-01T05:17:47.922Z,23.80
2019-06-01T05:20:16.665Z,23.60
2019-06-01T05:22:44.962Z,23.80
2019-06-01T05:25:14.011Z,24.90
2019-06-01T05:27:43.677Z,25.70
2019-06-01T05:30:13.886Z,25.80
2019-06-01T05:32:42.220Z,25.90
2019-06-01T05:35:11.776Z,26.10
2019-06-01T05:37:39.010Z,27.10
2019-06-01T05:40:08.486Z,28.20
2019-06-01T05:42:37.216Z,29.50
2019-06-01T05:45:06.375Z,30.00
2019-06-01T05:47:35.505Z,30.70
2019-06-01T05:50:04.205Z,31.30
2019-06-01T05:52:33.171Z,31.00
2019-06-01T05:55:01.270Z,31.00
2019-06-01T05:57:30.382Z,30.50
2019-06-01T05:59:59.047Z,30.00
2019-06-01T06:02:28.910Z,30.00
2019-06-01T06:04:57.810Z,29.50
2019-06-01T06:07:26.336Z,29.10
2019-06-01T06:09:54.503Z,28.60
2019-06-01T06:12:25.084Z,27.50
2019-06-01T06:14:53.753Z,26.90
2019-06-01T06:17:24.338Z,26.50
2019-06-01T06:19:53.933Z,26.70
2019-06-01T06:22:23.131Z,26.90
2019-06-01T06:24:51.143Z,26.80
2019-06-01T06:27:20.678Z,25.90
2019-06-01T06:29:49.042Z,26.70
2019-06-01T06:32:17.587Z,25.90
2019-06-01T06:34:45.629Z,26.50
2019-06-01T06:37:13.563Z,27.00
2019-06-01T06:39:42.318Z,26.00
2019-06-01T06:42:10.501Z,26.10
2019-06-01T06:44:38.916Z,26.20
2019-06-01T06:47:07.443Z,26.80
2019-06-01T06:49:41.229Z,27.40
2019-06-01T06:52:15.391Z,27.30
2019-06-01T06:54:43.104Z,26.60
2019-06-01T06:57:11.817Z,26.50
2019-06-01T06:59:38.863Z,26.60
2019-06-01T07:02:06.757Z,26.50
2019-06-01T07:04:34.167Z,26.40
2019-06-01T07:07:02.053Z,27.00
2019-06-01T07:09:29.905Z,26.70
2019-06-01T07:11:57.987Z,26.60
2019-06-01T07:14:27.467Z,26.30
2019-06-01T07:16:56.535Z,25.90
2019-06-01T07:19:25.696Z,25.70
2019-06-01T07:21:53.986Z,25.40
2019-06-01T07:24:23.893Z,24.40
2019-06-01T07:26:53.340Z,24.00
2019-06-01T07:29:22.169Z,23.90
2019-06-01T07:31:51.222Z,23.90
2019-06-01T07:34:30.796Z,23.70
2019-06-01T07:36:49.635Z,23.30
2019-06-01T07:39:20.508Z,23.20
2019-06-01T07:41:50.573Z,22.90
2019-06-01T07:44:20.674Z,23.00
2019-06-01T07:46:48.966Z,23.00
2019-06-01T07:49:16.390Z,23.00
2019-06-01T07:51:47.091Z,22.70
2019-06-01T07:54:14.677Z,22.60
2019-06-01T07:56:41.669Z,22.60
2019-06-01T07:59:12.230Z,22.70
2019-06-01T08:01:41.513Z,22.70
2019-06-01T08:04:12.534Z,22.80
2019-06-01T08:06:45.689Z,22.80
2019-06-01T08:09:11.598Z,23.10
2019-06-01T08:11:39.769Z,23.40
2019-06-01T08:14:07.675Z,23.40
2019-06-01T08:16:35.851Z,23.30
2019-06-01T08:19:04.340Z,23.30
2019-06-01T08:21:36.636Z,23.50
2019-06-01T08:24:04.885Z,23.40
2019-06-01T08:26:33.017Z,23.50
2019-06-01T08:29:01.633Z,23.50
2019-06-01T08:31:31.853Z,23.60
2019-06-01T08:34:01.465Z,23.80
2019-06-01T08:36:33.747Z,23.80
2019-06-01T08:39:01.356Z,23.30
2019-06-01T08:41:29.906Z,23.10
2019-06-01T08:44:18.643Z,23.10
2019-06-01T08:46:46.826Z,23.00
2019-06-01T08:49:21.814Z,22.90
2019-06-01T08:51:51.823Z,23.10
2019-06-01T08:54:21.349Z,23.30
2019-06-01T08:56:49.508Z,23.40
2019-06-01T08:59:18.018Z,23.40
2019-06-01T09:01:46.662Z,23.50
2019-06-01T09:04:15.198Z,23.30
2019-06-01T09:06:43.897Z,23.40
2019-06-01T09:09:12.208Z,23.60
2019-06-01T09:11:40.830Z,23.70
2019-06-01T09:14:12.496Z,23.90
2019-06-01T09:16:41.002Z,24.10
2019-06-01T09:19:11.426Z,23.90
2019-06-01T09:21:40.528Z,24.00
2019-06-01T09:24:09.618Z,23.90
2019-06-01T09:26:40.897Z,23.70
2019-06-01T09:29:08.407Z,23.90
2019-06-01T09:31:37.478Z,24.10
2019-06-01T09:34:07.434Z,24.10
2019-06-01T09:36:36.873Z,24.40
2019-06-01T09:39:06.516Z,24.10
2019-06-01T09:41:34.854Z,24.30
2019-06-01T09:44:03.226Z,24.30
2019-06-01T09:46:33.575Z,24.40
2019-06-01T09:49:02.212Z,24.20
2019-06-01T09:51:31.377Z,24.30
2019-06-01T09:54:04.138Z,24.30
2019-06-01T09:56:35.084Z,24.40
2019-06-01T09:59:02.301Z,24.70
2019-06-01T10:01:32.349Z,24.70
2019-06-01T10:04:02.065Z,24.40
2019-06-01T10:06:32.514Z,24.30
2019-06-01T10:09:01.226Z,24.40
2019-06-01T10:11:32.996Z,24.50
2019-06-01T10:14:04.705Z,24.70
2019-06-01T10:16:32.782Z,24.50
2019-06-01T10:19:00.612Z,24.90
2019-06-01T10:21:28.233Z,25.10
2019-06-01T10:23:55.363Z,25.70
2019-06-01T10:26:25.628Z,26.20
2019-06-01T10:28:53.444Z,26.60
2019-06-01T10:31:22.117Z,26.90
2019-06-01T10:33:51.981Z,27.20
2019-06-01T10:36:22.236Z,27.60
2019-06-01T10:38:50.914Z,27.90
2019-06-01T10:41:19.117Z,28.00
2019-06-01T10:43:47.551Z,28.30
2019-06-01T10:46:16.258Z,28.40
2019-06-01T10:48:45.149Z,28.80
2019-06-01T10:51:14.453Z,28.60
2019-06-01T10:53:43.846Z,28.50
2019-06-01T10:56:14.329Z,28.50
2019-06-01T10:58:56.616Z,27.80
2019-06-01T11:01:13.310Z,27.40
2019-06-01T11:03:42.767Z,27.50
2019-06-01T11:06:11.209Z,27.40
2019-06-01T11:08:43.184Z,27.30
2019-06-01T11:11:12.319Z,27.60
2019-06-01T11:13:41.043Z,27.40
2019-06-01T11:16:08.525Z,27.60
2019-06-01T11:18:37.496Z,27.40
2019-06-01T11:21:07.625Z,27.40
2019-06-01T11:23:35.600Z,27.50
2019-06-01T11:26:04.006Z,27.50
2019-06-01T11:28:40.096Z,27.30
2019-06-01T11:31:20.826Z,27.30
2019-06-01T11:33:52.592Z,27.40
2019-06-01T11:36:21.330Z,26.90
2019-06-01T11:38:52.953Z,26.70
2019-06-01T11:41:21.948Z,26.90
2019-06-01T11:43:50.442Z,26.90
2019-06-01T11:46:18.997Z,26.80
2019-06-01T11:48:47.739Z,27.20
2019-06-01T11:51:16.934Z,27.40
2019-06-01T11:53:46.021Z,27.70
2019-06-01T11:56:14.518Z,27.90
2019-06-01T11:58:43.662Z,28.00
2019-06-01T12:01:12.972Z,28.00
2019-06-01T12:03:43.839Z,27.80
2019-06-01T12:06:16.952Z,27.60
2019-06-01T12:08:46.333Z,27.80
2019-06-01T12:11:14.856Z,27.90
2019-06-01T12:13:44.577Z,27.80
2019-06-01T12:16:17.321Z,27.40
2019-06-01T12:18:46.984Z,27.10
2019-06-01T12:21:16.532Z,26.90
2019-06-01T12:23:45.648Z,26.90
2019-06-01T12:26:15.097Z,27.20
2019-06-01T12:28:43.888Z,27.20
2019-06-01T12:31:12.506Z,27.40
2019-06-01T12:33:42.019Z,27.60
2019-06-01T12:36:10.526Z,27.60
2019-06-01T12:38:58.305Z,27.90
2019-06-01T12:41:26.935Z,27.70
2019-06-01T12:44:12.777Z,27.70
2019-06-01T12:46:43.695Z,27.70
2019-06-01T12:49:11.478Z,27.70
2019-06-01T12:51:42.655Z,27.80
2019-06-01T12:54:11.266Z,27.80
2019-06-01T12:56:40.758Z,27.80
2019-06-01T12:59:09.371Z,27.60
2019-06-01T13:01:39.278Z,27.70
2019-06-01T13:04:08.003Z,27.60
2019-06-01T13:06:36.410Z,27.60
2019-06-01T13:09:08.085Z,27.80
2019-06-01T13:11:36.625Z,28.10
2019-06-01T13:14:05.540Z,27.80
2019-06-01T13:16:37.153Z,28.00
2019-06-01T13:19:06.117Z,28.30
2019-06-01T13:21:34.634Z,28.30
2019-06-01T13:24:03.681Z,28.20
2019-06-01T13:26:36.637Z,28.30
2019-06-01T13:29:04.108Z,28.00
2019-06-01T13:31:31.683Z,28.00
2019-06-01T13:34:08.403Z,27.90
2019-06-01T13:36:36.519Z,27.60
2019-06-01T13:39:07.040Z,27.70
2019-06-01T13:41:34.717Z,27.80
2019-06-01T13:44:02.319Z,27.90
2019-06-01T13:46:29.562Z,27.90
2019-06-01T13:48:56.803Z,28.00
2019-06-01T13:51:24.957Z,27.80
2019-06-01T13:53:54.552Z,27.60
2019-06-01T13:56:24.045Z,27.70
2019-06-01T13:58:56.274Z,27.80
2019-06-01T14:01:33.858Z,27.80
2019-06-01T14:04:02.055Z,27.90
2019-06-01T14:06:29.601Z,28.10
2019-06-01T14:08:57.129Z,28.00
2019-06-01T14:11:30.320Z,27.70
2019-06-01T14:14:01.349Z,27.70
2019-06-01T14:16:28.535Z,27.80
2019-06-01T14:18:57.034Z,27.90
2019-06-01T14:21:23.935Z,28.30
2019-06-01T14:23:52.022Z,28.40
2019-06-01T14:26:19.482Z,28.20
2019-06-01T14:28:47.911Z,27.90
2019-06-01T14:31:16.782Z,27.80
2019-06-01T14:33:44.411Z,27.80
2019-06-01T14:36:12.726Z,27.80
2019-06-01T14:38:46.816Z,28.00
2019-06-01T14:41:11.077Z,28.30
2019-06-01T14:43:39.470Z,28.70
2019-06-01T14:46:07.687Z,28.60
2019-06-01T14:48:35.966Z,28.30
2019-06-01T14:51:04.548Z,28.30
2019-06-01T14:53:32.565Z,28.70
2019-06-01T14:56:00.776Z,28.80
2019-06-01T14:58:28.706Z,28.80
2019-06-01T15:00:58.502Z,28.70
2019-06-01T15:03:40.693Z,28.40
2019-06-01T15:06:09.392Z,28.40
2019-06-01T15:08:38.485Z,28.30
2019-06-01T15:11:05.662Z,28.40
2019-06-01T15:13:34.034Z,28.30
2019-06-01T15:16:02.101Z,28.10
2019-06-01T15:18:29.166Z,28.10
2019-06-01T15:20:56.185Z,28.10
2019-06-01T15:23:23.810Z,28.20
2019-06-01T15:25:54.401Z,28.30
2019-06-01T15:28:22.858Z,28.30
2019-06-01T15:30:52.967Z,28.40
2019-06-01T15:33:22.512Z,28.40
2019-06-01T15:35:52.177Z,28.50
2019-06-01T15:38:20.343Z,28.20
2019-06-01T15:40:50.175Z,28.20
2019-06-01T15:43:18.877Z,28.40
2019-06-01T15:45:47.116Z,28.20
2019-06-01T15:48:15.048Z,27.90
2019-06-01T15:50:44.179Z,27.80
2019-06-01T15:53:12.710Z,27.40
2019-06-01T15:55:40.744Z,27.40
2019-06-01T15:58:08.673Z,27.40
2019-06-01T16:00:39.235Z,27.20
2019-06-01T16:03:06.774Z,27.00
2019-06-01T16:05:34.904Z,27.10
2019-06-01T16:08:03.667Z,27.10
2019-06-01T16:10:32.150Z,27.20
2019-06-01T16:13:01.522Z,27.40
2019-06-01T16:15:29.604Z,27.20
2019-06-01T16:17:58.010Z,27.20
2019-06-01T16:20:26.448Z,27.30
2019-06-01T16:22:55.932Z,27.30
2019-06-01T16:25:24.061Z,27.30
2019-06-01T16:27:52.214Z,27.20
2019-06-01T16:30:20.236Z,27.10
2019-06-01T16:32:48.990Z,27.20
2019-06-01T16:35:17.167Z,27.40
2019-06-01T16:37:45.314Z,27.50
2019-06-01T16:40:14.135Z,27.50
2019-06-01T16:42:42.466Z,27.20
2019-06-01T16:45:11.402Z,27.20
2019-06-01T16:47:39.505Z,27.20
2019-06-01T16:50:08.474Z,27.20
2019-06-01T16:52:36.806Z,27.40
2019-06-01T16:55:06.654Z,27.20
2019-06-01T16:57:35.066Z,27.20
2019-06-01T17:00:05.101Z,27.30
2019-06-01T17:02:35.851Z,27.20
2019-06-01T17:05:08.557Z,27.10
2019-06-01T17:07:43.273Z,27.10
2019-06-01T17:10:24.507Z,27.00
2019-06-01T17:12:43.234Z,26.80
2019-06-01T17:15:12.471Z,26.80
2019-06-01T17:17:40.599Z,26.80
2019-06-01T17:20:44.716Z,26.90
2019-06-01T17:23:27.049Z,26.90
2019-06-01T17:25:43.746Z,27.20
2019-06-01T17:28:10.967Z,27.20
2019-06-01T17:30:39.177Z,27.20
2019-06-01T17:33:08.588Z,27.30
2019-06-01T17:35:36.426Z,27.30
2019-06-01T17:38:05.074Z,27.10
2019-06-01T17:40:38.406Z,26.80
2019-06-01T17:43:04.982Z,26.80
2019-06-01T17:45:33.139Z,26.50
2019-06-01T17:48:19.432Z,26.50
2019-06-01T17:50:32.188Z,26.60
2019-06-01T17:53:01.018Z,26.60
2019-06-01T17:55:30.306Z,26.80
2019-06-01T17:57:58.977Z,26.90
2019-06-01T18:00:28.168Z,27.10
2019-06-01T18:02:57.721Z,27.00
2019-06-01T18:05:27.146Z,26.90
2019-06-01T18:07:55.949Z,26.60
2019-06-01T18:10:25.601Z,26.50
2019-06-01T18:12:53.712Z,26.50
2019-06-01T18:15:22.725Z,26.30
2019-06-01T18:17:54.046Z,26.30
2019-06-01T18:20:21.520Z,26.50
2019-06-01T18:22:49.542Z,26.60
2019-06-01T18:25:21.426Z,26.50
2019-06-01T18:27:49.770Z,26.40
2019-06-01T18:30:18.326Z,26.40
2019-06-01T18:32:49.167Z,26.40
2019-06-01T18:35:19.745Z,26.30
2019-06-01T18:37:46.953Z,26.40
2019-06-01T18:40:17.282Z,26.20
2019-06-01T18:42:47.550Z,26.10
2019-06-01T18:45:16.685Z,26.10
2019-06-01T18:47:45.374Z,25.90
2019-06-01T18:50:46.176Z,25.70
2019-06-01T18:53:17.546Z,25.80
2019-06-01T18:55:46.258Z,25.70
2019-06-01T18:58:14.795Z,25.70
2019-06-01T19:00:43.471Z,25.50
2019-06-01T19:03:18.694Z,25.30
2019-06-01T19:05:47.042Z,25.20
2019-06-01T19:08:16.172Z,25.20
2019-06-01T19:10:44.775Z,25.20
2019-06-01T19:13:14.014Z,25.00
2019-06-01T19:15:42.301Z,24.90
2019-06-01T19:18:10.706Z,24.70
2019-06-01T19:20:38.826Z,24.70
2019-06-01T19:23:08.703Z,24.60
2019-06-01T19:25:37.773Z,24.40
2019-06-01T19:28:06.872Z,24.30
2019-06-01T19:30:40.864Z,24.20
2019-06-01T19:33:13.419Z,24.10
2019-06-01T19:35:40.432Z,24.10
2019-06-01T19:38:09.110Z,24.00
2019-06-01T19:40:39.877Z,23.90
2019-06-01T19:43:09.463Z,23.80
2019-06-01T19:45:38.002Z,23.70
2019-06-01T19:48:08.241Z,23.60
2019-06-01T19:50:36.603Z,23.50
2019-06-01T19:53:06.450Z,23.50
2019-06-01T19:55:35.034Z,23.40
2019-06-01T19:58:05.014Z,23.40
2019-06-01T20:00:33.338Z,23.30
2019-06-01T20:03:02.133Z,23.10
2019-06-01T20:05:31.502Z,23.00
2019-06-01T20:08:00.425Z,22.90
2019-06-01T20:10:29.701Z,22.90
2019-06-01T20:12:58.997Z,22.80
2019-06-01T20:15:28.582Z,22.70
2019-06-01T20:17:59.162Z,22.70
2019-06-01T20:20:26.301Z,22.60
2019-06-01T20:22:55.506Z,22.60
2019-06-01T20:25:23.887Z,22.40
2019-06-01T20:27:54.133Z,22.40
2019-06-01T20:30:22.905Z,22.20
2019-06-01T20:32:51.073Z,22.20
2019-06-01T20:35:20.113Z,22.20
2019-06-01T20:37:48.640Z,22.20
2019-06-01T20:40:18.303Z,22.10
2019-06-01T20:42:47.362Z,22.00
2019-06-01T20:45:16.879Z,22.00
2019-06-01T20:47:46.081Z,22.00
2019-06-01T20:50:14.836Z,21.90
2019-06-01T20:52:44.261Z,21.90
2019-06-01T20:55:13.163Z,21.90
2019-06-01T20:57:43.607Z,21.80
2019-06-01T21:00:13.425Z,21.90
2019-06-01T21:02:43.131Z,21.80
2019-06-01T21:05:12.221Z,21.90
2019-06-01T21:07:41.594Z,21.70
2019-06-01T21:10:10.886Z,21.70
2019-06-01T21:12:45.647Z,21.70
2019-06-01T21:15:13.166Z,21.60
2019-06-01T21:17:42.522Z,21.40
2019-06-01T21:20:11.707Z,21.40
2019-06-01T21:22:40.470Z,21.50
2019-06-01T21:25:08.967Z,21.20
2019-06-01T21:27:38.353Z,21.30
2019-06-01T21:30:07.167Z,21.20
2019-06-01T21:32:38.677Z,21.20
2019-06-01T21:35:08.216Z,21.40
2019-06-01T21:37:40.507Z,21.30
2019-06-01T21:40:08.202Z,21.30
2019-06-01T21:42:38.519Z,21.30
2019-06-01T21:45:09.254Z,21.30
2019-06-01T21:47:37.394Z,21.20
2019-06-01T21:50:05.319Z,21.20
2019-06-01T21:52:34.590Z,21.20
2019-06-01T21:55:02.899Z,21.10
2019-06-01T21:57:31.052Z,21.20
2019-06-01T22:00:00.440Z,21.10
2019-06-01T22:02:30.166Z,21.10
2019-06-01T22:04:57.177Z,21.00
2019-06-01T22:07:25.901Z,21.00
2019-06-01T22:09:55.709Z,21.00
2019-06-01T22:12:25.679Z,20.90
2019-06-01T22:14:56.569Z,20.90
2019-06-01T22:17:24.233Z,20.80
2019-06-01T22:19:53.182Z,20.90
2019-06-01T22:22:21.738Z,20.80
2019-06-01T22:24:49.943Z,20.90
2019-06-01T22:27:18.545Z,20.90
2019-06-01T22:29:47.101Z,20.90
2019-06-01T22:32:15.630Z,20.90
2019-06-01T22:34:44.075Z,20.80
2019-06-01T22:37:13.055Z,20.90
2019-06-01T22:39:41.925Z,20.80
2019-06-01T22:42:10.940Z,20.80
2019-06-01T22:44:41.382Z,20.90
2019-06-01T22:47:09.797Z,20.80
2019-06-01T22:49:39.185Z,20.90
2019-06-01T22:52:07.581Z,20.90
2019-06-01T22:54:36.277Z,20.90
2019-06-01T22:57:04.746Z,20.90
2019-06-01T22:59:33.178Z,20.80
2019-06-01T23:02:02.053Z,20.90
2019-06-01T23:04:31.363Z,20.70
2019-06-01T23:07:00.382Z,20.70
2019-06-01T23:09:29.751Z,20.70
2019-06-01T23:11:58.825Z,20.60
2019-06-01T23:14:27.418Z,20.50
2019-06-01T23:16:58.073Z,20.50
2019-06-01T23:19:26.268Z,20.50
2019-06-01T23:21:54.518Z,20.50
2019-06-01T23:24:23.889Z,20.40
2019-06-01T23:26:53.050Z,20.40
2019-06-01T23:29:22.295Z,20.40
2019-06-01T23:31:51.096Z,20.30
2019-06-01T23:34:28.546Z,20.30
2019-06-01T23:36:57.598Z,20.30
2019-06-01T23:39:26.537Z,20.20
2019-06-01T23:41:57.599Z,20.10
2019-06-01T23:44:30.739Z,20.20
2019-06-01T23:46:59.549Z,20.10
2019-06-01T23:49:27.367Z,20.10
2019-06-01T23:51:55.111Z,20.00
2019-06-01T23:54:23.554Z,20.00
2019-06-01T23:56:53.290Z,19.90
2019-06-01T23:59:20.454Z,19.90
